sensor_id;sensor_type;location;lat;lon;timestamp;pressure;altitude;pressure_sealevel;temperature;humidity
71956;BME280;59829;50.562;6.258;2023-02-23T00:04:53;95959.59;;;24.17;50.03
71956;BME280;59829;50.562;6.258;2023-02-23T00:14:53;95965.81;;;24.09;49.99
71956;BME280;59829;50.562;6.258;2023-02-23T00:24:53;95963.00;;;24.04;49.66
71956;BME280;59829;50.562;6.258;2023-02-23T00:34:56;95964.44;;;24.00;49.69
71956;BME280;59829;50.562;6.258;2023-02-23T00:44:57;95965.63;;;23.91;49.97
71956;BME280;59829;50.562;6.258;2023-02-23T00:55:03;95953.16;;;23.80;50.41
71956;BME280;59829;50.562;6.258;2023-02-23T01:05:04;95963.00;;;23.71;50.66
71956;BME280;59829;50.562;6.258;2023-02-23T01:15:05;95961.59;;;23.68;50.53
71956;BME280;59829;50.562;6.258;2023-02-23T01:25:08;95966.03;;;23.61;50.61
71956;BME280;59829;50.562;6.258;2023-02-23T01:35:10;95966.78;;;23.55;50.62
71956;BME280;59829;50.562;6.258;2023-02-23T01:45:34;95963.16;;;23.56;50.46
71956;BME280;59829;50.562;6.258;2023-02-23T01:55:35;95961.53;;;23.55;50.31
71956;BME280;59829;50.562;6.258;2023-02-23T02:05:37;95957.94;;;23.56;50.23
71956;BME280;59829;50.562;6.258;2023-02-23T02:15:47;95955.09;;;23.51;50.13
71956;BME280;59829;50.562;6.258;2023-02-23T02:26:10;95962.34;;;23.49;50.00
71956;BME280;59829;50.562;6.258;2023-02-23T02:46:48;95947.66;;;23.48;49.95
71956;BME280;59829;50.562;6.258;2023-02-23T02:56:55;95945.06;;;23.48;49.80
71956;BME280;59829;50.562;6.258;2023-02-23T03:07:01;95942.25;;;23.43;49.90
71956;BME280;59829;50.562;6.258;2023-02-23T03:17:46;95947.63;;;23.35;50.01
71956;BME280;59829;50.562;6.258;2023-02-23T03:28:10;95940.59;;;23.29;49.91
71956;BME280;59829;50.562;6.258;2023-02-23T03:49:28;95963.13;;;23.30;49.74
71956;BME280;59829;50.562;6.258;2023-02-23T03:59:54;95955.44;;;23.22;50.00
71956;BME280;59829;50.562;6.258;2023-02-23T04:10:15;95966.31;;;23.25;49.86
71956;BME280;59829;50.562;6.258;2023-02-23T04:20:34;95967.75;;;23.41;49.35
71956;BME280;59829;50.562;6.258;2023-02-23T04:30:35;95970.78;;;23.51;48.98
71956;BME280;59829;50.562;6.258;2023-02-23T04:40:35;95979.31;;;23.66;48.58
71956;BME280;59829;50.562;6.258;2023-02-23T04:50:36;95982.53;;;23.68;48.52
71956;BME280;59829;50.562;6.258;2023-02-23T05:00:36;95985.53;;;23.72;48.48
71956;BME280;59829;50.562;6.258;2023-02-23T05:10:38;95986.13;;;23.67;48.48
71956;BME280;59829;50.562;6.258;2023-02-23T05:20:41;95985.88;;;23.56;48.66
71956;BME280;59829;50.562;6.258;2023-02-23T05:30:43;95991.31;;;23.54;48.67
71956;BME280;59829;50.562;6.258;2023-02-23T05:40:44;95994.91;;;23.40;49.02
71956;BME280;59829;50.562;6.258;2023-02-23T05:50:44;95987.66;;;23.42;48.83
71956;BME280;59829;50.562;6.258;2023-02-23T06:00:45;95992.28;;;23.40;48.71
71956;BME280;59829;50.562;6.258;2023-02-23T06:10:46;96009.97;;;23.38;48.71
71956;BME280;59829;50.562;6.258;2023-02-23T06:20:46;96006.16;;;23.34;48.75
71956;BME280;59829;50.562;6.258;2023-02-23T06:30:47;96019.03;;;23.42;48.80
71956;BME280;59829;50.562;6.258;2023-02-23T06:40:50;96022.66;;;23.41;48.44
71956;BME280;59829;50.562;6.258;2023-02-23T06:50:50;96030.69;;;23.33;48.65
71956;BME280;59829;50.562;6.258;2023-02-23T07:00:54;96044.34;;;23.28;48.75
71956;BME280;59829;50.562;6.258;2023-02-23T07:10:55;96053.59;;;23.31;48.60
71956;BME280;59829;50.562;6.258;2023-02-23T07:20:56;96080.09;;;23.21;48.71
71956;BME280;59829;50.562;6.258;2023-02-23T07:30:57;96079.75;;;23.31;48.56
71956;BME280;59829;50.562;6.258;2023-02-23T07:40:58;96085.34;;;23.28;48.66
71956;BME280;59829;50.562;6.258;2023-02-23T07:50:58;96096.38;;;23.23;48.73
71956;BME280;59829;50.562;6.258;2023-02-23T08:00:59;96100.19;;;23.21;48.68
71956;BME280;59829;50.562;6.258;2023-02-23T08:11:03;96113.84;;;23.23;48.63
71956;BME280;59829;50.562;6.258;2023-02-23T08:21:04;96116.34;;;23.31;48.65
71956;BME280;59829;50.562;6.258;2023-02-23T08:31:08;96124.72;;;23.20;48.77
71956;BME280;59829;50.562;6.258;2023-02-23T08:41:09;96128.00;;;23.35;49.04
71956;BME280;59829;50.562;6.258;2023-02-23T08:51:09;96135.66;;;23.36;48.76
71956;BME280;59829;50.562;6.258;2023-02-23T09:01:19;96147.91;;;23.01;50.02
71956;BME280;59829;50.562;6.258;2023-02-23T09:11:22;96150.75;;;23.06;50.95
71956;BME280;59829;50.562;6.258;2023-02-23T09:21:22;96164.13;;;23.25;51.04
71956;BME280;59829;50.562;6.258;2023-02-23T09:31:25;96166.81;;;23.31;51.03
71956;BME280;59829;50.562;6.258;2023-02-23T09:41:48;96169.50;;;23.44;51.34
71956;BME280;59829;50.562;6.258;2023-02-23T09:51:53;96176.75;;;23.49;50.79
71956;BME280;59829;50.562;6.258;2023-02-23T10:02:27;96191.66;;;23.55;50.80
71956;BME280;59829;50.562;6.258;2023-02-23T10:12:48;96198.06;;;23.46;50.72
71956;BME280;59829;50.562;6.258;2023-02-23T10:22:55;96200.06;;;23.44;51.01
71956;BME280;59829;50.562;6.258;2023-02-23T10:33:23;96211.31;;;23.44;51.04
71956;BME280;59829;50.562;6.258;2023-02-23T10:43:26;96206.09;;;23.44;50.55
71956;BME280;59829;50.562;6.258;2023-02-23T10:53:33;96218.00;;;23.54;50.47
71956;BME280;59829;50.562;6.258;2023-02-23T11:13:40;96218.19;;;23.52;50.14
71956;BME280;59829;50.562;6.258;2023-02-23T11:23:41;96217.88;;;23.62;49.80
71956;BME280;59829;50.562;6.258;2023-02-23T11:33:42;96203.38;;;23.59;49.75
71956;BME280;59829;50.562;6.258;2023-02-23T11:43:50;96210.22;;;23.60;49.47
71956;BME280;59829;50.562;6.258;2023-02-23T11:53:51;96198.13;;;23.59;49.08
71956;BME280;59829;50.562;6.258;2023-02-23T12:03:52;96193.28;;;23.56;49.24
71956;BME280;59829;50.562;6.258;2023-02-23T12:24:31;96194.06;;;23.50;49.28
71956;BME280;59829;50.562;6.258;2023-02-23T12:35:30;96189.22;;;23.47;48.91
71956;BME280;59829;50.562;6.258;2023-02-23T12:45:31;96195.84;;;23.43;48.94
71956;BME280;59829;50.562;6.258;2023-02-23T12:55:43;96190.97;;;23.40;48.69
71956;BME280;59829;50.562;6.258;2023-02-23T13:05:54;96202.44;;;23.39;48.87
71956;BME280;59829;50.562;6.258;2023-02-23T13:36:27;96191.75;;;23.34;48.63
71956;BME280;59829;50.562;6.258;2023-02-23T13:56:56;96206.28;;;23.43;48.44
71956;BME280;59829;50.562;6.258;2023-02-23T14:07:15;96209.72;;;23.43;48.35
71956;BME280;59829;50.562;6.258;2023-02-23T14:27:23;96209.25;;;23.40;48.04
71956;BME280;59829;50.562;6.258;2023-02-23T14:37:36;96206.47;;;23.41;47.97
71956;BME280;59829;50.562;6.258;2023-02-23T14:47:41;96216.09;;;23.41;47.89
71956;BME280;59829;50.562;6.258;2023-02-23T14:57:44;96227.81;;;23.45;47.58
71956;BME280;59829;50.562;6.258;2023-02-23T15:07:45;96241.25;;;23.42;48.17
71956;BME280;59829;50.562;6.258;2023-02-23T15:17:47;96241.69;;;23.45;48.23
71956;BME280;59829;50.562;6.258;2023-02-23T15:27:49;96247.53;;;23.48;47.96
71956;BME280;59829;50.562;6.258;2023-02-23T15:37:51;96248.81;;;23.58;47.57
71956;BME280;59829;50.562;6.258;2023-02-23T15:47:52;96244.41;;;23.59;47.96
71956;BME280;59829;50.562;6.258;2023-02-23T15:57:56;96237.91;;;23.55;48.15
71956;BME280;59829;50.562;6.258;2023-02-23T16:08:05;96239.91;;;23.46;48.02
71956;BME280;59829;50.562;6.258;2023-02-23T16:18:16;96243.88;;;23.42;48.11
71956;BME280;59829;50.562;6.258;2023-02-23T16:28:19;96232.25;;;23.44;48.04
71956;BME280;59829;50.562;6.258;2023-02-23T16:38:26;96235.06;;;23.43;48.25
71956;BME280;59829;50.562;6.258;2023-02-23T16:48:32;96235.41;;;23.40;47.97
71956;BME280;59829;50.562;6.258;2023-02-23T16:58:33;96235.41;;;23.40;48.21
71956;BME280;59829;50.562;6.258;2023-02-23T17:08:35;96249.09;;;23.42;47.95
71956;BME280;59829;50.562;6.258;2023-02-23T17:18:37;96242.69;;;23.44;47.78
71956;BME280;59829;50.562;6.258;2023-02-23T17:28:38;96254.06;;;23.58;47.38
71956;BME280;59829;50.562;6.258;2023-02-23T17:38:39;96255.66;;;23.59;47.46
71956;BME280;59829;50.562;6.258;2023-02-23T17:48:43;96251.69;;;23.63;47.76
71956;BME280;59829;50.562;6.258;2023-02-23T17:58:46;96258.41;;;23.51;47.83
71956;BME280;59829;50.562;6.258;2023-02-23T18:08:46;96264.50;;;23.58;48.08
71956;BME280;59829;50.562;6.258;2023-02-23T18:18:47;96264.97;;;23.62;48.22
71956;BME280;59829;50.562;6.258;2023-02-23T18:28:48;96263.25;;;23.54;48.38
71956;BME280;59829;50.562;6.258;2023-02-23T18:38:50;96277.69;;;23.43;48.02
71956;BME280;59829;50.562;6.258;2023-02-23T18:48:50;96264.31;;;22.61;44.56
71956;BME280;59829;50.562;6.258;2023-02-23T18:58:53;96261.09;;;23.30;44.37
71956;BME280;59829;50.562;6.258;2023-02-23T19:08:56;96264.59;;;23.71;44.72
71956;BME280;59829;50.562;6.258;2023-02-23T19:18:59;96259.88;;;23.95;44.43
71956;BME280;59829;50.562;6.258;2023-02-23T19:29:00;96257.66;;;23.92;44.31
71956;BME280;59829;50.562;6.258;2023-02-23T19:39:03;96264.38;;;23.66;43.20
71956;BME280;59829;50.562;6.258;2023-02-23T19:49:15;96271.81;;;23.63;42.36
71956;BME280;59829;50.562;6.258;2023-02-23T19:59:15;96273.06;;;23.73;42.15
71956;BME280;59829;50.562;6.258;2023-02-23T20:09:15;96275.72;;;23.80;41.00
71956;BME280;59829;50.562;6.258;2023-02-23T20:19:16;96294.09;;;23.93;40.51
71956;BME280;59829;50.562;6.258;2023-02-23T20:29:18;96293.53;;;23.98;40.28
71956;BME280;59829;50.562;6.258;2023-02-23T20:39:19;96291.75;;;24.05;40.18
71956;BME280;59829;50.562;6.258;2023-02-23T20:49:19;96291.41;;;24.21;40.15
71956;BME280;59829;50.562;6.258;2023-02-23T21:09:25;96280.94;;;24.21;39.18
71956;BME280;59829;50.562;6.258;2023-02-23T21:19:25;96271.28;;;24.22;39.01
71956;BME280;59829;50.562;6.258;2023-02-23T21:29:26;96269.88;;;23.78;37.46
71956;BME280;59829;50.562;6.258;2023-02-23T21:39:27;96251.97;;;23.47;37.22
71956;BME280;59829;50.562;6.258;2023-02-23T21:49:28;96251.09;;;23.40;36.91
71956;BME280;59829;50.562;6.258;2023-02-23T21:59:29;96228.06;;;23.85;37.81
71956;BME280;59829;50.562;6.258;2023-02-23T22:09:30;96232.28;;;24.33;37.84
71956;BME280;59829;50.562;6.258;2023-02-23T22:19:31;96222.06;;;24.58;37.79
71956;BME280;59829;50.562;6.258;2023-02-23T22:29:31;96218.44;;;24.79;38.22
71956;BME280;59829;50.562;6.258;2023-02-23T22:39:32;96209.78;;;24.85;38.60
71956;BME280;59829;50.562;6.258;2023-02-23T22:49:32;96215.03;;;24.92;38.92
71956;BME280;59829;50.562;6.258;2023-02-23T22:59:33;96206.34;;;24.91;38.74
71956;BME280;59829;50.562;6.258;2023-02-23T23:09:34;96212.22;;;24.87;39.26
71956;BME280;59829;50.562;6.258;2023-02-23T23:19:38;96202.53;;;24.74;39.39
71956;BME280;59829;50.562;6.258;2023-02-23T23:29:40;96196.84;;;24.64;39.71
71956;BME280;59829;50.562;6.258;2023-02-23T23:39:45;96178.34;;;24.52;39.89
71956;BME280;59829;50.562;6.258;2023-02-23T23:49:45;96166.63;;;24.42;40.27
71956;BME280;59829;50.562;6.258;2023-02-23T23:59:45;96153.47;;;24.28;40.41
